createdAt,value
2023-03-29T00:01:35.921Z,93162.22
2023-03-29T00:04:06.441Z,93182.78
2023-03-29T00:06:33.555Z,93189.88
2023-03-29T00:09:00.145Z,93204.31
2023-03-29T00:11:27.333Z,93202.25
2023-03-29T00:13:53.791Z,93168.03
2023-03-29T00:16:20.378Z,93160.81
2023-03-29T00:18:46.855Z,93162.66
2023-03-29T00:21:13.312Z,93163.41
2023-03-29T00:23:39.813Z,93133.47
2023-03-29T00:26:08.136Z,93135.31
2023-03-29T00:28:35.045Z,93149.94
2023-03-29T00:31:11.743Z,93152.94
2023-03-29T00:33:38.907Z,93142.84
2023-03-29T00:36:06.043Z,93134.34
2023-03-29T00:38:32.766Z,93134.00
2023-03-29T00:40:59.579Z,93145.97
2023-03-29T00:43:26.464Z,93124.63
2023-03-29T00:45:52.955Z,93138.09
2023-03-29T00:48:24.644Z,93134.97
2023-03-29T00:50:56.237Z,93099.13
2023-03-29T00:53:42.812Z,93115.69
2023-03-29T00:56:12.261Z,93135.94
2023-03-29T00:58:44.508Z,93126.97
2023-03-29T01:01:15.442Z,93096.94
2023-03-29T01:03:46.370Z,93102.22
2023-03-29T01:06:14.461Z,93113.44
2023-03-29T01:08:52.980Z,93121.72
2023-03-29T01:11:52.809Z,93127.84
2023-03-29T01:14:23.128Z,93123.75
2023-03-29T01:16:49.643Z,93133.84
2023-03-29T01:19:18.961Z,93126.34
2023-03-29T01:21:54.891Z,93132.47
2023-03-29T01:24:46.130Z,93119.34
2023-03-29T01:27:31.729Z,93124.72
2023-03-29T01:30:02.043Z,93147.44
2023-03-29T01:32:56.954Z,93125.38
2023-03-29T01:35:57.525Z,93090.22
2023-03-29T01:38:45.886Z,93092.94
2023-03-29T01:41:12.520Z,93076.16
2023-03-29T01:44:28.394Z,93072.78
2023-03-29T01:47:00.752Z,93058.56
2023-03-29T01:49:34.502Z,93049.06
2023-03-29T01:52:08.062Z,93053.88
2023-03-29T01:54:40.935Z,93073.66
2023-03-29T01:57:07.580Z,93089.97
2023-03-29T01:59:34.706Z,93089.81
2023-03-29T02:02:02.814Z,93104.78
2023-03-29T02:04:31.671Z,93113.19
2023-03-29T02:06:59.295Z,93112.53
2023-03-29T02:09:25.810Z,93083.63
2023-03-29T02:11:52.301Z,93078.13
2023-03-29T02:14:19.269Z,93068.97
2023-03-29T02:16:46.338Z,93064.34
2023-03-29T02:19:13.319Z,93054.09
2023-03-29T02:22:01.478Z,93056.78
2023-03-29T02:24:27.948Z,93045.72
2023-03-29T02:26:54.409Z,93036.81
2023-03-29T02:29:20.870Z,93046.56
2023-03-29T02:31:51.791Z,93054.50
2023-03-29T02:34:27.272Z,93054.94
2023-03-29T02:36:56.644Z,93066.25
2023-03-29T02:39:25.229Z,93074.34
2023-03-29T02:41:52.115Z,93061.13
2023-03-29T02:44:20.612Z,93054.69
2023-03-29T02:46:49.117Z,93062.00
2023-03-29T02:49:15.645Z,93051.03
2023-03-29T02:51:42.112Z,93054.59
2023-03-29T02:54:19.485Z,93052.88
2023-03-29T02:56:50.038Z,93057.19
2023-03-29T02:59:17.681Z,93041.59
2023-03-29T03:01:44.855Z,93052.97
2023-03-29T03:04:11.971Z,93039.44
2023-03-29T03:06:38.501Z,93037.94
2023-03-29T03:09:05.922Z,93028.47
2023-03-29T03:11:33.234Z,93031.91
2023-03-29T03:13:59.879Z,93031.38
2023-03-29T03:16:26.427Z,93035.00
2023-03-29T03:18:54.834Z,93042.84
2023-03-29T03:21:22.167Z,93042.28
2023-03-29T03:23:49.290Z,93042.28
2023-03-29T03:26:16.051Z,93058.53
2023-03-29T03:28:43.116Z,93062.94
2023-03-29T03:31:09.625Z,93057.56
2023-03-29T03:33:36.085Z,93064.78
2023-03-29T03:36:06.256Z,93072.31
2023-03-29T03:38:33.293Z,93063.47
2023-03-29T03:41:00.909Z,93059.16
2023-03-29T03:43:28.634Z,93054.44
2023-03-29T03:45:55.729Z,93051.72
2023-03-29T03:48:22.979Z,93057.59
2023-03-29T03:50:50.360Z,93049.28
2023-03-29T03:53:16.906Z,93054.88
2023-03-29T03:55:50.675Z,93054.00
2023-03-29T03:58:17.642Z,93058.06
2023-03-29T04:00:45.116Z,93040.31
2023-03-29T04:03:11.757Z,93045.72
2023-03-29T04:05:41.818Z,93055.13
2023-03-29T04:08:08.498Z,93056.03
2023-03-29T04:10:35.127Z,93057.16
2023-03-29T04:13:05.154Z,93059.63
2023-03-29T04:15:32.557Z,93040.34
2023-03-29T04:17:59.576Z,93043.25
2023-03-29T04:20:27.032Z,93043.75
2023-03-29T04:22:53.709Z,93050.75
2023-03-29T04:25:21.463Z,93046.88
2023-03-29T04:27:49.087Z,93044.81
2023-03-29T04:30:15.736Z,93047.50
2023-03-29T04:32:42.302Z,93049.75
2023-03-29T04:35:09.057Z,93038.22
2023-03-29T04:37:35.546Z,93024.19
2023-03-29T04:40:02.495Z,93023.09
2023-03-29T04:42:29.347Z,93036.00
2023-03-29T04:44:55.884Z,93042.00
2023-03-29T04:47:22.388Z,93037.84
2023-03-29T04:49:48.878Z,93036.41
2023-03-29T04:52:15.343Z,93039.88
2023-03-29T04:54:41.840Z,93033.78
2023-03-29T04:57:08.418Z,93028.69
2023-03-29T04:59:35.031Z,93036.97
2023-03-29T05:02:03.019Z,93044.03
2023-03-29T05:04:29.774Z,93043.16
2023-03-29T05:06:57.290Z,93042.25
2023-03-29T05:09:24.608Z,93042.84
2023-03-29T05:11:51.379Z,93037.94
2023-03-29T05:14:17.885Z,93043.94
2023-03-29T05:16:44.495Z,93038.44
2023-03-29T05:19:11.407Z,93037.72
2023-03-29T05:21:38.521Z,93052.84
2023-03-29T05:24:05.904Z,93038.44
2023-03-29T05:26:32.397Z,93034.88
2023-03-29T05:28:58.893Z,93041.94
2023-03-29T05:31:25.400Z,93028.91
2023-03-29T05:33:51.978Z,93022.31
2023-03-29T05:36:19.212Z,93022.03
2023-03-29T05:38:46.551Z,93022.47
2023-03-29T05:41:13.875Z,93024.13
2023-03-29T05:43:40.339Z,93034.44
2023-03-29T05:46:07.329Z,93049.91
2023-03-29T05:48:33.968Z,93050.22
2023-03-29T05:51:00.596Z,93049.91
2023-03-29T05:53:28.495Z,93033.56
2023-03-29T05:55:55.195Z,93035.53
2023-03-29T05:58:21.860Z,93049.31
2023-03-29T06:00:52.089Z,93059.22
2023-03-29T06:03:21.849Z,93047.38
2023-03-29T06:05:49.931Z,93047.09
2023-03-29T06:08:16.485Z,93061.50
2023-03-29T06:10:43.012Z,93069.72
2023-03-29T06:13:09.482Z,93064.66
2023-03-29T06:15:35.981Z,93076.94
2023-03-29T06:18:03.536Z,93084.28
2023-03-29T06:20:30.121Z,93086.84
2023-03-29T06:22:56.855Z,93075.75
2023-03-29T06:25:23.406Z,93058.66
2023-03-29T06:27:49.874Z,93061.78
2023-03-29T06:30:16.897Z,93072.59
2023-03-29T06:32:43.474Z,93085.81
2023-03-29T06:35:10.240Z,93069.88
2023-03-29T06:37:37.068Z,93065.69
2023-03-29T06:40:06.333Z,93057.09
2023-03-29T06:42:33.039Z,93065.50
2023-03-29T06:44:59.502Z,93072.09
2023-03-29T06:47:30.784Z,93092.38
2023-03-29T06:49:57.380Z,93088.03
2023-03-29T06:52:23.840Z,93077.97
2023-03-29T06:54:50.552Z,93082.16
2023-03-29T06:57:17.733Z,93085.31
2023-03-29T06:59:44.348Z,93085.44
2023-03-29T07:02:12.461Z,93091.09
2023-03-29T07:04:39.563Z,93093.03
2023-03-29T07:07:07.698Z,93090.94
2023-03-29T07:09:35.875Z,93083.09
2023-03-29T07:12:02.435Z,93082.03
2023-03-29T07:14:30.035Z,93087.91
2023-03-29T07:16:58.326Z,93077.97
2023-03-29T07:19:27.212Z,93077.53
2023-03-29T07:21:54.270Z,93087.53
2023-03-29T07:24:21.413Z,93078.81
2023-03-29T07:27:00.002Z,93090.09
2023-03-29T07:29:29.558Z,93086.91
2023-03-29T07:31:56.376Z,93096.91
2023-03-29T07:34:22.843Z,93101.53
2023-03-29T07:36:49.321Z,93101.22
2023-03-29T07:39:15.824Z,93101.44
2023-03-29T07:41:42.295Z,93102.56
2023-03-29T07:44:09.404Z,93105.06
2023-03-29T07:46:36.347Z,93109.81
2023-03-29T07:49:03.563Z,93108.75
2023-03-29T07:51:30.135Z,93106.66
2023-03-29T07:53:56.602Z,93099.50
2023-03-29T07:56:23.324Z,93114.75
2023-03-29T07:58:49.820Z,93119.63
2023-03-29T08:01:18.786Z,93118.13
2023-03-29T08:03:45.935Z,93127.03
2023-03-29T08:06:12.486Z,93124.91
2023-03-29T08:08:39.024Z,93132.44
2023-03-29T08:11:07.133Z,93145.25
2023-03-29T08:13:33.648Z,93135.06
2023-03-29T08:16:00.225Z,93139.72
2023-03-29T08:18:26.735Z,93132.16
2023-03-29T08:20:53.264Z,93144.91
2023-03-29T08:23:19.715Z,93141.97
2023-03-29T08:25:47.045Z,93144.00
2023-03-29T08:28:13.660Z,93151.91
2023-03-29T08:30:40.161Z,93148.28
2023-03-29T08:33:06.697Z,93139.66
2023-03-29T08:35:33.284Z,93138.00
2023-03-29T08:37:59.799Z,93129.91
2023-03-29T08:40:27.229Z,93127.06
2023-03-29T08:43:04.746Z,93124.91
2023-03-29T08:45:35.438Z,93131.63
2023-03-29T08:48:22.094Z,93140.97
2023-03-29T08:50:56.467Z,93134.56
2023-03-29T08:53:24.300Z,93147.34
2023-03-29T08:55:50.842Z,93155.38
2023-03-29T08:58:24.334Z,93150.00
2023-03-29T09:00:52.017Z,93151.09
2023-03-29T09:03:26.143Z,93164.75
2023-03-29T09:06:06.706Z,93155.38
2023-03-29T09:08:37.242Z,93145.53
2023-03-29T09:11:26.003Z,93143.59
2023-03-29T09:14:10.898Z,93140.84
2023-03-29T09:16:58.523Z,93141.56
2023-03-29T09:19:46.504Z,93145.03
2023-03-29T09:22:19.728Z,93145.97
2023-03-29T09:24:53.972Z,93137.38
2023-03-29T09:27:27.321Z,93133.50
2023-03-29T09:30:02.425Z,93137.19
2023-03-29T09:32:36.440Z,93134.53
2023-03-29T09:35:21.551Z,93133.53
2023-03-29T09:37:48.564Z,93127.66
2023-03-29T09:40:21.262Z,93122.88
2023-03-29T09:42:48.437Z,93122.47
2023-03-29T09:45:14.942Z,93138.13
2023-03-29T09:47:55.498Z,93143.84
2023-03-29T09:50:35.240Z,93138.88
2023-03-29T09:53:01.742Z,93129.22
2023-03-29T09:55:32.324Z,93133.47
2023-03-29T09:58:00.730Z,93138.88
2023-03-29T10:00:27.279Z,93136.84
2023-03-29T10:02:54.654Z,93160.38
2023-03-29T10:05:21.909Z,93110.97
2023-03-29T10:07:54.292Z,93106.44
2023-03-29T10:10:27.788Z,93113.34
2023-03-29T10:12:56.841Z,93111.34
2023-03-29T10:15:29.613Z,93104.09
2023-03-29T10:18:05.571Z,93100.25
2023-03-29T10:20:34.721Z,93103.41
2023-03-29T10:23:01.186Z,93100.44
2023-03-29T10:25:31.476Z,93096.19
2023-03-29T10:28:13.045Z,93105.88
2023-03-29T10:30:40.046Z,93096.88
2023-03-29T10:33:06.947Z,93112.28
2023-03-29T10:35:38.066Z,93105.75
2023-03-29T10:38:07.560Z,93107.88
2023-03-29T10:40:35.135Z,93104.03
2023-03-29T10:43:12.208Z,93103.19
2023-03-29T10:45:39.000Z,93099.19
2023-03-29T10:48:06.979Z,93101.72
2023-03-29T10:50:35.034Z,93107.59
2023-03-29T10:53:02.238Z,93097.72
2023-03-29T10:55:33.749Z,93111.22
2023-03-29T10:58:12.391Z,93109.53
2023-03-29T11:01:05.724Z,93109.63
2023-03-29T11:04:07.057Z,93107.56
2023-03-29T11:07:12.524Z,93105.31
2023-03-29T11:09:57.060Z,93096.56
2023-03-29T11:12:44.502Z,93115.09
2023-03-29T11:15:48.116Z,93097.38
2023-03-29T11:18:27.177Z,93109.00
2023-03-29T11:21:11.674Z,93110.78
2023-03-29T11:23:44.106Z,93113.22
2023-03-29T11:26:20.867Z,93104.16
2023-03-29T11:28:56.348Z,93108.44
2023-03-29T11:31:41.368Z,93108.00
2023-03-29T11:34:17.539Z,93098.28
2023-03-29T11:36:44.558Z,93094.44
2023-03-29T11:39:42.263Z,93084.69
2023-03-29T11:42:20.724Z,93100.72
2023-03-29T11:44:47.491Z,93090.97
2023-03-29T11:47:18.857Z,93109.53
2023-03-29T11:49:45.408Z,93100.81
2023-03-29T11:52:15.202Z,93097.88
2023-03-29T11:54:53.728Z,93078.97
2023-03-29T11:57:29.090Z,93088.91
2023-03-29T12:00:05.962Z,93092.22
2023-03-29T12:02:39.355Z,93096.16
2023-03-29T12:05:20.237Z,93094.56
2023-03-29T12:08:23.015Z,93091.81
2023-03-29T12:11:27.394Z,93095.56
2023-03-29T12:13:57.264Z,93091.16
2023-03-29T12:16:47.229Z,93094.53
2023-03-29T12:19:23.168Z,93090.84
2023-03-29T12:21:50.810Z,93094.72
2023-03-29T12:24:17.946Z,93099.06
2023-03-29T12:26:48.720Z,93100.66
2023-03-29T12:29:37.429Z,93102.09
2023-03-29T12:32:28.301Z,93083.53
2023-03-29T12:35:16.157Z,93099.81
2023-03-29T12:37:58.254Z,93091.56
2023-03-29T12:40:26.185Z,93099.91
2023-03-29T12:42:54.230Z,93091.91
2023-03-29T12:45:28.435Z,93091.34
2023-03-29T12:47:54.945Z,93083.78
2023-03-29T12:50:47.729Z,93087.69
2023-03-29T12:53:18.914Z,93080.19
2023-03-29T12:55:51.117Z,93085.31
2023-03-29T12:58:39.750Z,93084.00
2023-03-29T13:01:23.827Z,93092.72
2023-03-29T13:03:57.670Z,93080.00
2023-03-29T13:06:29.061Z,93077.03
2023-03-29T13:09:00.528Z,93068.88
2023-03-29T13:11:31.505Z,93077.44
2023-03-29T13:13:58.178Z,93076.28
2023-03-29T13:16:34.291Z,93088.34
2023-03-29T13:19:13.931Z,93073.03
2023-03-29T13:21:59.108Z,93080.84
2023-03-29T13:25:01.232Z,93076.41
2023-03-29T13:27:47.777Z,93081.00
2023-03-29T13:30:31.755Z,93075.53
2023-03-29T13:33:23.121Z,93086.81
2023-03-29T13:36:30.218Z,93073.56
2023-03-29T13:39:01.606Z,93064.16
2023-03-29T13:41:28.775Z,93067.66
2023-03-29T13:43:55.762Z,93069.06
2023-03-29T13:46:35.198Z,93074.19
2023-03-29T13:49:25.039Z,93063.97
2023-03-29T13:51:54.454Z,93063.53
2023-03-29T13:54:40.615Z,93066.50
2023-03-29T13:57:19.086Z,93054.78
2023-03-29T14:00:00.480Z,93056.88
2023-03-29T14:02:36.224Z,93049.44
2023-03-29T14:05:04.153Z,93058.09
2023-03-29T14:07:30.642Z,93051.44
2023-03-29T14:09:58.140Z,93046.13
2023-03-29T14:12:24.751Z,93037.63
2023-03-29T14:14:58.910Z,93039.34
2023-03-29T14:17:26.028Z,93039.44
2023-03-29T14:19:53.321Z,93035.72
2023-03-29T14:22:20.377Z,93032.22
2023-03-29T14:24:49.149Z,93028.91
2023-03-29T14:27:15.801Z,93030.09
2023-03-29T14:29:44.313Z,93018.91
2023-03-29T14:32:17.808Z,93026.47
2023-03-29T14:34:48.145Z,93028.88
2023-03-29T14:37:18.735Z,93039.56
2023-03-29T14:39:45.713Z,93032.19
2023-03-29T14:42:16.227Z,93032.16
2023-03-29T14:44:42.732Z,93020.78
2023-03-29T14:47:09.218Z,93024.81
2023-03-29T14:49:35.764Z,93027.94
2023-03-29T14:52:02.260Z,93018.34
2023-03-29T14:54:29.677Z,93019.38
2023-03-29T14:56:56.241Z,93015.09
2023-03-29T14:59:36.717Z,93002.44
2023-03-29T15:02:03.522Z,93009.47
2023-03-29T15:04:36.094Z,93014.41
2023-03-29T15:07:05.476Z,93005.97
2023-03-29T15:09:34.104Z,93000.25
2023-03-29T15:12:01.884Z,92998.31
2023-03-29T15:14:33.612Z,92996.91
2023-03-29T15:17:33.462Z,93000.56
2023-03-29T15:20:24.091Z,92987.78
2023-03-29T15:23:00.372Z,92993.41
2023-03-29T15:25:37.716Z,92990.09
2023-03-29T15:28:04.378Z,92993.00
2023-03-29T15:30:41.847Z,92985.25
2023-03-29T15:33:16.307Z,92976.13
2023-03-29T15:35:43.660Z,92979.78
2023-03-29T15:38:12.297Z,92983.53
2023-03-29T15:40:38.819Z,92972.22
2023-03-29T15:43:05.929Z,92984.59
2023-03-29T15:45:32.485Z,92977.88
2023-03-29T15:48:01.958Z,92968.63
2023-03-29T15:50:28.651Z,92983.97
2023-03-29T15:53:08.674Z,92979.44
2023-03-29T15:55:44.631Z,92984.41
2023-03-29T15:58:15.495Z,92983.81
2023-03-29T16:00:43.462Z,92987.41
2023-03-29T16:03:14.813Z,92999.66
2023-03-29T16:05:44.916Z,92999.75
2023-03-29T16:08:12.117Z,93001.75
2023-03-29T16:10:39.017Z,93025.91
2023-03-29T16:13:05.644Z,93015.25
2023-03-29T16:15:32.355Z,93021.47
2023-03-29T16:17:58.913Z,93019.69
2023-03-29T16:20:25.704Z,93007.28
2023-03-29T16:22:54.136Z,93011.53
2023-03-29T16:25:22.737Z,92994.38
2023-03-29T16:27:49.381Z,92993.41
2023-03-29T16:30:16.048Z,92975.28
2023-03-29T16:32:42.792Z,92965.34
2023-03-29T16:35:22.454Z,92963.88
2023-03-29T16:37:48.979Z,92964.63
2023-03-29T16:40:16.502Z,92957.91
2023-03-29T16:42:42.972Z,92963.06
2023-03-29T16:45:12.544Z,92958.09
2023-03-29T16:47:39.448Z,92958.34
2023-03-29T16:50:08.076Z,92957.34
2023-03-29T16:52:34.697Z,92960.78
2023-03-29T16:55:01.674Z,92958.03
2023-03-29T16:57:28.557Z,92963.94
2023-03-29T16:59:55.751Z,92954.00
2023-03-29T17:02:22.220Z,92949.25
2023-03-29T17:04:48.779Z,92946.50
2023-03-29T17:07:15.697Z,92947.94
2023-03-29T17:09:42.525Z,92952.56
2023-03-29T17:12:09.109Z,92956.44
2023-03-29T17:14:35.858Z,92966.34
2023-03-29T17:17:02.315Z,92974.44
2023-03-29T17:19:28.777Z,92973.88
2023-03-29T17:21:55.296Z,92957.00
2023-03-29T17:24:21.759Z,92960.44
2023-03-29T17:26:48.227Z,92969.75
2023-03-29T17:29:14.701Z,92972.88
2023-03-29T17:31:47.454Z,92966.78
2023-03-29T17:34:15.220Z,92957.31
2023-03-29T17:36:41.688Z,92967.19
2023-03-29T17:39:09.565Z,92964.56
2023-03-29T17:41:36.329Z,92968.59
2023-03-29T17:44:02.829Z,92958.56
2023-03-29T17:46:29.406Z,92950.50
2023-03-29T17:48:56.091Z,92945.97
2023-03-29T17:51:23.687Z,92941.88
2023-03-29T17:53:52.349Z,92943.31
2023-03-29T17:56:22.770Z,92945.63
2023-03-29T17:58:49.467Z,92919.38
2023-03-29T18:01:16.739Z,92910.19
2023-03-29T18:03:43.355Z,92920.25
2023-03-29T18:06:09.820Z,92913.59
2023-03-29T18:08:36.300Z,92908.16
2023-03-29T18:11:11.560Z,92912.84
2023-03-29T18:13:39.731Z,92924.66
2023-03-29T18:16:07.536Z,92929.78
2023-03-29T18:18:34.622Z,92927.56
2023-03-29T18:21:01.161Z,92931.75
2023-03-29T18:23:27.652Z,92932.72
2023-03-29T18:26:02.819Z,92938.88
2023-03-29T18:28:30.485Z,92953.41
2023-03-29T18:30:57.040Z,92949.09
2023-03-29T18:33:23.535Z,92958.38
2023-03-29T18:35:53.221Z,92957.81
2023-03-29T18:38:21.219Z,92956.81
2023-03-29T18:40:48.160Z,92952.81
2023-03-29T18:43:14.702Z,92957.28
2023-03-29T18:45:41.421Z,92956.00
2023-03-29T18:48:08.726Z,92965.06
2023-03-29T18:50:36.066Z,92960.47
2023-03-29T18:53:02.553Z,92967.13
2023-03-29T18:55:29.840Z,92971.44
2023-03-29T18:57:56.400Z,92971.91
2023-03-29T19:00:22.940Z,92973.19
2023-03-29T19:02:49.595Z,92984.78
2023-03-29T19:05:16.244Z,92984.72
2023-03-29T19:07:42.696Z,92986.00
2023-03-29T19:10:09.271Z,92980.41
2023-03-29T19:12:36.005Z,92989.84
2023-03-29T19:15:02.512Z,93001.97
2023-03-29T19:17:29.026Z,92995.53
2023-03-29T19:19:56.714Z,93001.91
2023-03-29T19:22:23.382Z,93022.94
2023-03-29T19:24:49.990Z,93005.75
2023-03-29T19:27:16.525Z,93020.31
2023-03-29T19:29:43.006Z,93039.31
2023-03-29T19:32:09.487Z,93013.69
2023-03-29T19:34:36.154Z,93016.19
2023-03-29T19:37:02.609Z,93023.44
2023-03-29T19:39:29.818Z,93029.50
2023-03-29T19:41:56.499Z,93029.97
2023-03-29T19:44:28.002Z,93026.22
2023-03-29T19:46:54.567Z,93022.84
2023-03-29T19:49:21.068Z,93009.00
2023-03-29T19:51:48.044Z,93018.25
2023-03-29T19:54:14.638Z,93014.53
2023-03-29T19:56:42.665Z,93020.91
2023-03-29T19:59:11.222Z,93042.34
2023-03-29T20:01:39.232Z,93041.75
2023-03-29T20:04:06.296Z,93045.06
2023-03-29T20:06:32.874Z,93046.28
2023-03-29T20:08:59.402Z,93050.47
2023-03-29T20:11:26.009Z,93043.72
2023-03-29T20:13:52.530Z,93036.53
2023-03-29T20:16:19.279Z,93029.50
2023-03-29T20:18:46.423Z,93032.91
2023-03-29T20:21:14.091Z,93014.00
2023-03-29T20:23:40.718Z,93007.44
2023-03-29T20:26:07.526Z,93000.63
2023-03-29T20:28:34.597Z,93000.25
2023-03-29T20:31:05.075Z,92999.88
2023-03-29T20:33:31.849Z,92982.22
2023-03-29T20:35:58.526Z,92972.78
2023-03-29T20:38:25.208Z,92976.50
2023-03-29T20:40:51.688Z,92971.31
2023-03-29T20:43:20.686Z,92990.19
2023-03-29T20:45:53.613Z,92973.47
2023-03-29T20:48:30.098Z,92970.56
2023-03-29T20:50:57.693Z,92961.69
2023-03-29T20:53:25.028Z,92956.59
2023-03-29T20:55:51.747Z,92954.16
2023-03-29T20:58:18.256Z,92949.50
2023-03-29T21:00:45.277Z,92952.38
2023-03-29T21:03:12.235Z,92943.97
2023-03-29T21:05:39.021Z,92932.38
2023-03-29T21:08:05.658Z,92938.25
2023-03-29T21:10:32.185Z,92936.78
2023-03-29T21:13:02.349Z,92927.16
2023-03-29T21:15:31.086Z,92932.44
2023-03-29T21:17:57.943Z,92919.66
2023-03-29T21:20:24.626Z,92918.91
2023-03-29T21:22:51.595Z,92927.69
2023-03-29T21:25:18.327Z,92919.00
2023-03-29T21:27:44.931Z,92919.34
2023-03-29T21:30:11.753Z,92906.81
2023-03-29T21:32:38.342Z,92904.13
2023-03-29T21:35:05.305Z,92901.88
2023-03-29T21:37:31.794Z,92908.59
2023-03-29T21:39:58.289Z,92908.75
2023-03-29T21:42:24.837Z,92907.69
2023-03-29T21:44:51.328Z,92904.06
2023-03-29T21:47:17.812Z,92908.75
2023-03-29T21:49:44.345Z,92889.59
2023-03-29T21:52:10.898Z,92902.03
2023-03-29T21:54:37.360Z,92897.00
2023-03-29T21:57:03.932Z,92906.22
2023-03-29T21:59:30.763Z,92894.47
2023-03-29T22:01:57.254Z,92887.66
2023-03-29T22:04:35.889Z,92898.75
2023-03-29T22:07:03.418Z,92893.19
2023-03-29T22:09:29.890Z,92894.94
2023-03-29T22:11:56.898Z,92891.09
2023-03-29T22:14:23.353Z,92900.53
2023-03-29T22:16:49.929Z,92898.38
2023-03-29T22:19:16.490Z,92886.78
2023-03-29T22:21:44.029Z,92887.06
2023-03-29T22:24:10.540Z,92897.44
2023-03-29T22:26:36.997Z,92896.25
2023-03-29T22:29:03.533Z,92894.28
2023-03-29T22:31:30.295Z,92892.00
2023-03-29T22:33:58.237Z,92888.09
2023-03-29T22:36:26.398Z,92891.09
2023-03-29T22:38:52.942Z,92872.88
2023-03-29T22:41:20.216Z,92866.69
2023-03-29T22:43:46.763Z,92862.75
2023-03-29T22:46:13.890Z,92863.97
2023-03-29T22:48:40.653Z,92864.63
2023-03-29T22:51:07.127Z,92877.91
2023-03-29T22:53:33.802Z,92870.53
2023-03-29T22:56:00.771Z,92871.75
2023-03-29T22:58:29.236Z,92865.31
2023-03-29T23:00:56.890Z,92861.56
2023-03-29T23:03:23.707Z,92867.28
2023-03-29T23:05:57.019Z,92864.09
2023-03-29T23:08:24.256Z,92867.06
2023-03-29T23:10:51.039Z,92859.22
2023-03-29T23:13:19.953Z,92866.13
2023-03-29T23:15:47.967Z,92867.91
2023-03-29T23:18:18.211Z,92862.28
2023-03-29T23:20:47.079Z,92858.16
2023-03-29T23:23:13.945Z,92855.06
2023-03-29T23:25:40.426Z,92855.91
2023-03-29T23:28:06.950Z,92869.63
2023-03-29T23:30:35.764Z,92867.94
2023-03-29T23:33:02.497Z,92870.38
2023-03-29T23:35:29.066Z,92867.94
2023-03-29T23:37:55.588Z,92858.41
2023-03-29T23:40:22.117Z,92866.06
2023-03-29T23:42:48.891Z,92872.50
2023-03-29T23:45:18.084Z,92867.28
2023-03-29T23:47:44.979Z,92867.03
2023-03-29T23:50:13.408Z,92882.53
2023-03-29T23:52:40.722Z,92877.03
2023-03-29T23:55:08.512Z,92880.47
2023-03-29T23:57:36.909Z,92870.59
